createdAt,value
2022-08-17T00:00:34.246Z,26.17
2022-08-17T00:01:52.038Z,26.15
2022-08-17T00:02:55.741Z,26.07
2022-08-17T00:03:57.763Z,26.06
2022-08-17T00:04:59.750Z,26.07
2022-08-17T00:06:02.941Z,26.07
2022-08-17T00:07:04.555Z,26.06
2022-08-17T00:08:06.380Z,26.03
2022-08-17T00:09:08.096Z,26.03
2022-08-17T00:10:09.752Z,26.01
2022-08-17T00:11:12.832Z,26.00
2022-08-17T00:12:40.764Z,25.99
2022-08-17T00:13:37.303Z,25.99
2022-08-17T00:14:38.849Z,25.98
2022-08-17T00:15:40.353Z,25.98
2022-08-17T00:16:55.461Z,25.96
2022-08-17T00:17:59.039Z,25.95
2022-08-17T00:19:08.056Z,25.94
2022-08-17T00:20:10.944Z,25.93
2022-08-17T00:21:12.461Z,25.93
2022-08-17T00:22:31.261Z,25.91
2022-08-17T00:23:36.706Z,25.88
2022-08-17T00:24:38.303Z,25.90
2022-08-17T00:25:40.545Z,25.89
2022-08-17T00:26:45.220Z,25.89
2022-08-17T00:27:47.437Z,25.88
2022-08-17T00:28:48.927Z,25.89
2022-08-17T00:29:53.493Z,25.87
2022-08-17T00:30:55.236Z,25.87
2022-08-17T00:31:56.727Z,25.87
2022-08-17T00:33:12.614Z,25.86
2022-08-17T00:34:17.963Z,25.86
2022-08-17T00:35:20.034Z,25.86
2022-08-17T00:36:21.532Z,25.86
2022-08-17T00:37:23.042Z,25.85
2022-08-17T00:38:24.658Z,25.80
2022-08-17T00:39:26.333Z,25.79
2022-08-17T00:40:44.403Z,25.77
2022-08-17T00:41:46.748Z,25.78
2022-08-17T00:42:48.551Z,25.76
2022-08-17T00:43:54.126Z,25.74
2022-08-17T00:44:55.658Z,25.74
2022-08-17T00:45:57.514Z,25.73
2022-08-17T00:46:59.011Z,25.73
2022-08-17T00:48:00.807Z,25.72
2022-08-17T00:49:02.563Z,25.72
2022-08-17T00:50:04.888Z,25.71
2022-08-17T00:51:09.595Z,25.72
2022-08-17T00:52:16.532Z,25.72
2022-08-17T00:53:18.107Z,25.72
2022-08-17T00:54:24.972Z,25.72
2022-08-17T00:55:26.511Z,25.71
2022-08-17T00:56:32.790Z,25.73
2022-08-17T00:57:38.263Z,25.71
2022-08-17T00:58:39.748Z,25.71
2022-08-17T00:59:43.046Z,25.72
2022-08-17T01:00:45.596Z,25.72
2022-08-17T01:01:47.951Z,25.71
2022-08-17T01:02:49.443Z,25.71
2022-08-17T01:03:51.855Z,25.71
2022-08-17T01:04:53.419Z,25.69
2022-08-17T01:05:55.202Z,25.70
2022-08-17T01:06:57.008Z,25.69
2022-08-17T01:07:58.987Z,25.69
2022-08-17T01:09:00.540Z,25.65
2022-08-17T01:10:02.847Z,25.65
2022-08-17T01:11:05.475Z,25.65
2022-08-17T01:12:09.020Z,25.63
2022-08-17T01:13:11.208Z,25.62
2022-08-17T01:14:13.297Z,25.62
2022-08-17T01:15:15.160Z,25.58
2022-08-17T01:16:26.462Z,25.56
2022-08-17T01:17:28.542Z,25.55
2022-08-17T01:18:30.106Z,25.55
2022-08-17T01:19:32.511Z,25.53
2022-08-17T01:20:42.637Z,25.53
2022-08-17T01:21:51.170Z,25.52
2022-08-17T01:22:53.031Z,25.52
2022-08-17T01:23:54.592Z,25.51
2022-08-17T01:25:00.142Z,25.51
2022-08-17T01:26:06.081Z,25.52
2022-08-17T01:27:10.269Z,25.51
2022-08-17T01:28:12.242Z,25.51
2022-08-17T01:29:33.776Z,25.51
2022-08-17T01:30:58.760Z,25.51
2022-08-17T01:31:58.036Z,25.49
2022-08-17T01:32:59.712Z,25.46
2022-08-17T01:34:02.012Z,25.44
2022-08-17T01:35:04.044Z,25.44
2022-08-17T01:36:06.917Z,25.42
2022-08-17T01:37:08.408Z,25.41
2022-08-17T01:38:09.926Z,25.40
2022-08-17T01:39:17.251Z,25.38
2022-08-17T01:40:18.719Z,25.37
2022-08-17T01:41:20.434Z,25.36
2022-08-17T01:42:22.014Z,25.37
2022-08-17T01:43:27.257Z,25.36
2022-08-17T01:44:28.973Z,25.36
2022-08-17T01:45:32.155Z,25.35
2022-08-17T01:46:34.536Z,25.35
2022-08-17T01:47:37.347Z,25.34
2022-08-17T01:48:39.166Z,25.34
2022-08-17T01:49:40.871Z,25.33
2022-08-17T01:50:43.052Z,25.32
2022-08-17T01:51:44.567Z,25.32
2022-08-17T01:52:46.715Z,25.30
2022-08-17T01:53:49.613Z,25.29
2022-08-17T01:54:51.213Z,25.28
2022-08-17T01:55:53.924Z,25.28
2022-08-17T01:56:55.478Z,25.29
2022-08-17T01:57:58.182Z,25.27
2022-08-17T01:59:00.583Z,25.26
2022-08-17T02:00:02.186Z,25.22
2022-08-17T02:01:14.725Z,25.21
2022-08-17T02:02:30.397Z,25.20
2022-08-17T02:03:34.470Z,25.18
2022-08-17T02:04:36.020Z,25.16
2022-08-17T02:05:37.531Z,25.15
2022-08-17T02:06:44.995Z,25.12
2022-08-17T02:07:59.574Z,25.13
2022-08-17T02:09:03.797Z,25.13
2022-08-17T02:10:05.941Z,25.12
2022-08-17T02:11:21.837Z,25.13
2022-08-17T02:12:38.591Z,25.13
2022-08-17T02:13:41.652Z,25.09
2022-08-17T02:14:43.995Z,25.09
2022-08-17T02:15:46.095Z,25.07
2022-08-17T02:16:47.653Z,25.06
2022-08-17T02:17:49.142Z,25.06
2022-08-17T02:18:56.375Z,25.06
2022-08-17T02:19:57.997Z,25.06
2022-08-17T02:20:59.507Z,25.05
2022-08-17T02:22:01.292Z,25.04
2022-08-17T02:23:02.946Z,25.03
2022-08-17T02:24:08.307Z,25.02
2022-08-17T02:25:10.163Z,25.03
2022-08-17T02:26:11.764Z,25.03
2022-08-17T02:27:27.227Z,24.99
2022-08-17T02:28:28.859Z,24.97
2022-08-17T02:29:30.411Z,24.95
2022-08-17T02:31:01.582Z,24.95
2022-08-17T02:31:54.690Z,24.97
2022-08-17T02:32:56.180Z,24.97
2022-08-17T02:34:03.864Z,24.97
2022-08-17T02:35:06.631Z,24.93
2022-08-17T02:36:11.151Z,24.94
2022-08-17T02:37:13.011Z,24.92
2022-08-17T02:38:14.497Z,24.92
2022-08-17T02:39:16.058Z,24.92
2022-08-17T02:40:17.709Z,24.91
2022-08-17T02:41:38.331Z,24.89
2022-08-17T02:42:40.333Z,24.90
2022-08-17T02:43:42.413Z,24.89
2022-08-17T02:44:44.148Z,24.89
2022-08-17T02:45:45.767Z,24.88
2022-08-17T02:46:47.268Z,24.87
2022-08-17T02:47:48.799Z,24.87
2022-08-17T02:48:50.288Z,24.86
2022-08-17T02:49:55.552Z,24.88
2022-08-17T02:50:57.599Z,24.88
2022-08-17T02:51:59.115Z,24.88
2022-08-17T02:53:01.842Z,24.88
2022-08-17T02:54:41.509Z,24.88
2022-08-17T02:55:44.209Z,24.89
2022-08-17T02:56:45.722Z,24.89
2022-08-17T02:57:47.351Z,24.89
2022-08-17T02:58:49.181Z,24.88
2022-08-17T02:59:50.696Z,24.88
2022-08-17T03:00:52.184Z,24.87
2022-08-17T03:01:53.860Z,24.88
2022-08-17T03:02:56.544Z,24.88
2022-08-17T03:03:58.037Z,24.88
2022-08-17T03:04:59.656Z,24.88
2022-08-17T03:06:01.202Z,24.89
2022-08-17T03:07:03.250Z,24.89
2022-08-17T03:08:05.104Z,24.89
2022-08-17T03:09:06.597Z,24.89
2022-08-17T03:10:08.411Z,24.89
2022-08-17T03:11:10.443Z,24.87
2022-08-17T03:12:12.900Z,24.86
2022-08-17T03:13:14.628Z,24.85
2022-08-17T03:14:16.263Z,24.86
2022-08-17T03:15:20.002Z,24.87
2022-08-17T03:16:21.487Z,24.86
2022-08-17T03:17:23.008Z,24.85
2022-08-17T03:18:26.350Z,24.80
2022-08-17T03:19:28.042Z,24.78
2022-08-17T03:20:30.251Z,24.78
2022-08-17T03:21:32.056Z,24.76
2022-08-17T03:22:38.514Z,24.76
2022-08-17T03:23:42.206Z,24.75
2022-08-17T03:24:43.840Z,24.75
2022-08-17T03:25:46.739Z,24.73
2022-08-17T03:26:48.435Z,24.75
2022-08-17T03:27:50.244Z,24.75
2022-08-17T03:28:53.129Z,24.74
2022-08-17T03:29:55.176Z,24.73
2022-08-17T03:30:56.808Z,24.71
2022-08-17T03:31:58.320Z,24.71
2022-08-17T03:33:00.248Z,24.73
2022-08-17T03:34:01.777Z,24.72
2022-08-17T03:35:03.369Z,24.72
2022-08-17T03:36:05.072Z,24.71
2022-08-17T03:37:06.647Z,24.70
2022-08-17T03:38:08.859Z,24.70
2022-08-17T03:39:10.395Z,24.69
2022-08-17T03:40:12.083Z,24.70
2022-08-17T03:41:13.927Z,24.70
2022-08-17T03:42:31.792Z,24.72
2022-08-17T03:43:34.655Z,24.72
2022-08-17T03:44:36.192Z,24.72
2022-08-17T03:45:56.421Z,24.74
2022-08-17T03:47:16.411Z,24.74
2022-08-17T03:48:36.686Z,24.74
2022-08-17T03:49:56.674Z,24.74
2022-08-17T03:51:17.177Z,24.74
2022-08-17T03:52:37.418Z,24.74
2022-08-17T03:54:11.925Z,24.74
2022-08-17T03:55:36.166Z,24.75
2022-08-17T03:56:43.775Z,24.75
2022-08-17T03:57:45.873Z,24.74
2022-08-17T03:58:47.361Z,24.73
2022-08-17T03:59:49.459Z,24.72
2022-08-17T04:00:50.950Z,24.72
2022-08-17T04:01:53.324Z,24.73
2022-08-17T04:02:54.979Z,24.73
2022-08-17T04:03:56.478Z,24.72
2022-08-17T04:04:58.069Z,24.71
2022-08-17T04:06:24.562Z,24.71
2022-08-17T04:07:27.589Z,24.71
2022-08-17T04:08:29.517Z,24.72
2022-08-17T04:09:31.123Z,24.72
2022-08-17T04:10:33.913Z,24.73
2022-08-17T04:11:36.127Z,24.72
2022-08-17T04:12:48.567Z,24.72
2022-08-17T04:13:50.247Z,24.73
2022-08-17T04:14:54.698Z,24.69
2022-08-17T04:15:59.168Z,24.71
2022-08-17T04:17:00.647Z,24.69
2022-08-17T04:18:02.145Z,24.68
2022-08-17T04:19:03.802Z,24.68
2022-08-17T04:20:05.679Z,24.71
2022-08-17T04:21:08.620Z,24.69
2022-08-17T04:22:10.185Z,24.72
2022-08-17T04:23:33.772Z,24.72
2022-08-17T04:24:36.032Z,24.70
2022-08-17T04:25:39.331Z,24.69
2022-08-17T04:26:52.772Z,24.71
2022-08-17T04:27:55.339Z,24.71
2022-08-17T04:28:58.498Z,24.70
2022-08-17T04:30:00.288Z,24.67
2022-08-17T04:31:01.864Z,24.62
2022-08-17T04:32:03.515Z,24.53
2022-08-17T04:33:07.240Z,24.42
2022-08-17T04:34:09.422Z,24.39
2022-08-17T04:35:11.331Z,24.37
2022-08-17T04:36:13.575Z,24.31
2022-08-17T04:37:15.088Z,24.33
2022-08-17T04:38:17.342Z,24.36
2022-08-17T04:39:18.831Z,24.40
2022-08-17T04:40:39.462Z,24.43
2022-08-17T04:41:59.534Z,24.46
2022-08-17T04:43:02.568Z,24.48
2022-08-17T04:44:04.567Z,24.51
2022-08-17T04:45:06.336Z,24.51
2022-08-17T04:46:08.711Z,24.54
2022-08-17T04:47:10.646Z,24.37
2022-08-17T04:48:14.767Z,24.56
2022-08-17T04:49:17.573Z,24.57
2022-08-17T04:50:19.060Z,24.58
2022-08-17T04:51:20.576Z,24.60
2022-08-17T04:52:29.792Z,24.63
2022-08-17T04:53:44.428Z,24.64
2022-08-17T04:54:46.016Z,24.66
2022-08-17T04:55:47.927Z,24.68
2022-08-17T04:56:49.471Z,24.69
2022-08-17T04:57:51.040Z,24.70
2022-08-17T04:58:53.945Z,24.72
2022-08-17T04:59:55.452Z,24.74
2022-08-17T05:00:57.151Z,24.74
2022-08-17T05:01:58.695Z,24.76
2022-08-17T05:03:00.315Z,24.71
2022-08-17T05:04:33.322Z,24.78
2022-08-17T05:05:25.362Z,24.80
2022-08-17T05:06:27.334Z,24.81
2022-08-17T05:07:31.596Z,24.83
2022-08-17T05:08:33.288Z,24.83
2022-08-17T05:09:34.828Z,24.83
2022-08-17T05:10:37.204Z,24.68
2022-08-17T05:11:46.893Z,24.81
2022-08-17T05:12:48.899Z,24.82
2022-08-17T05:13:50.666Z,24.82
2022-08-17T05:14:52.420Z,24.82
2022-08-17T05:15:55.098Z,24.83
2022-08-17T05:16:56.615Z,24.85
2022-08-17T05:17:58.191Z,24.85
2022-08-17T05:18:59.797Z,24.86
2022-08-17T05:20:01.292Z,24.88
2022-08-17T05:21:02.892Z,24.91
2022-08-17T05:22:05.476Z,24.92
2022-08-17T05:23:08.075Z,24.93
2022-08-17T05:24:16.713Z,24.94
2022-08-17T05:25:34.511Z,24.94
2022-08-17T05:26:38.970Z,24.95
2022-08-17T05:27:40.494Z,24.97
2022-08-17T05:28:43.425Z,24.97
2022-08-17T05:29:47.571Z,25.00
2022-08-17T05:30:49.589Z,25.00
2022-08-17T05:31:51.545Z,25.01
2022-08-17T05:33:00.203Z,25.01
2022-08-17T05:34:01.771Z,25.02
2022-08-17T05:35:03.694Z,25.03
2022-08-17T05:36:06.110Z,25.00
2022-08-17T05:37:07.613Z,25.00
2022-08-17T05:38:09.504Z,24.98
2022-08-17T05:39:16.319Z,24.97
2022-08-17T05:40:19.939Z,24.97
2022-08-17T05:41:21.424Z,24.97
2022-08-17T05:42:23.091Z,24.99
2022-08-17T05:43:25.522Z,24.97
2022-08-17T05:44:27.006Z,24.94
2022-08-17T05:45:55.271Z,24.95
2022-08-17T05:46:50.478Z,24.93
2022-08-17T05:47:51.984Z,24.92
2022-08-17T05:48:55.834Z,24.84
2022-08-17T05:49:57.495Z,24.84
2022-08-17T05:51:03.693Z,24.87
2022-08-17T05:52:19.590Z,24.87
2022-08-17T05:53:28.079Z,24.90
2022-08-17T05:54:42.492Z,24.91
2022-08-17T05:55:52.811Z,24.94
2022-08-17T05:56:57.367Z,24.95
2022-08-17T05:58:07.962Z,24.98
2022-08-17T05:59:09.499Z,24.99
2022-08-17T06:00:14.093Z,25.00
2022-08-17T06:01:18.841Z,25.03
2022-08-17T06:02:20.390Z,25.04
2022-08-17T06:03:31.146Z,25.05
2022-08-17T06:04:38.652Z,25.07
2022-08-17T06:05:43.567Z,25.08
2022-08-17T06:06:47.963Z,25.10
2022-08-17T06:08:04.744Z,25.12
2022-08-17T06:09:25.743Z,25.12
2022-08-17T06:10:35.054Z,25.13
2022-08-17T06:11:42.624Z,25.14
2022-08-17T06:12:53.581Z,25.15
2022-08-17T06:13:55.072Z,25.18
2022-08-17T06:15:02.603Z,25.13
2022-08-17T06:16:33.776Z,25.14
2022-08-17T06:17:33.265Z,25.15
2022-08-17T06:18:45.495Z,25.19
2022-08-17T06:19:49.580Z,25.21
2022-08-17T06:20:55.070Z,25.22
2022-08-17T06:21:56.678Z,25.24
2022-08-17T06:23:02.090Z,25.26
2022-08-17T06:24:07.607Z,25.27
2022-08-17T06:25:19.142Z,25.27
2022-08-17T06:26:21.515Z,25.07
2022-08-17T06:27:41.111Z,25.31
2022-08-17T06:28:53.794Z,25.32
2022-08-17T06:30:01.055Z,25.34
2022-08-17T06:31:05.739Z,25.35
2022-08-17T06:32:08.471Z,25.36
2022-08-17T06:33:12.551Z,25.36
2022-08-17T06:34:14.040Z,25.38
2022-08-17T06:35:30.059Z,25.40
2022-08-17T06:36:52.902Z,25.40
2022-08-17T06:38:00.956Z,25.43
2022-08-17T06:39:21.256Z,25.44
2022-08-17T06:40:45.530Z,25.44
2022-08-17T06:42:06.114Z,25.45
2022-08-17T06:43:07.665Z,25.45
2022-08-17T06:44:11.591Z,25.45
2022-08-17T06:45:41.763Z,25.46
2022-08-17T06:46:48.580Z,25.47
2022-08-17T06:47:53.259Z,25.48
2022-08-17T06:49:07.315Z,25.49
2022-08-17T06:50:16.304Z,25.51
2022-08-17T06:51:33.514Z,25.52
2022-08-17T06:52:45.712Z,25.51
2022-08-17T06:53:51.855Z,25.51
2022-08-17T06:54:56.146Z,25.49
2022-08-17T06:56:08.749Z,25.48
2022-08-17T06:57:15.424Z,25.48
2022-08-17T06:58:20.782Z,25.45
2022-08-17T06:59:47.155Z,25.42
2022-08-17T07:00:59.065Z,25.40
2022-08-17T07:02:05.225Z,25.40
2022-08-17T07:03:25.221Z,25.42
2022-08-17T07:04:28.895Z,25.42
2022-08-17T07:05:37.667Z,25.42
2022-08-17T07:06:41.420Z,25.44
2022-08-17T07:08:02.629Z,25.43
2022-08-17T07:09:13.180Z,25.46
2022-08-17T07:10:14.691Z,25.48
2022-08-17T07:11:36.455Z,25.50
2022-08-17T07:12:39.410Z,25.51
2022-08-17T07:13:51.549Z,25.52
2022-08-17T07:14:58.614Z,25.53
2022-08-17T07:16:06.586Z,25.55
2022-08-17T07:17:09.296Z,25.53
2022-08-17T07:18:10.845Z,25.53
2022-08-17T07:19:13.124Z,25.50
2022-08-17T07:20:17.691Z,25.49
2022-08-17T07:21:26.200Z,25.44
2022-08-17T07:22:50.545Z,25.39
2022-08-17T07:24:29.310Z,25.34
2022-08-17T07:25:31.530Z,25.32
2022-08-17T07:26:33.033Z,25.29
2022-08-17T07:27:37.371Z,25.31
2022-08-17T07:28:39.157Z,25.32
2022-08-17T07:29:44.037Z,25.33
2022-08-17T07:30:49.209Z,25.34
2022-08-17T07:31:50.967Z,25.35
2022-08-17T07:32:59.558Z,25.38
2022-08-17T07:34:02.938Z,25.38
2022-08-17T07:35:07.440Z,25.40
2022-08-17T07:36:27.744Z,25.42
2022-08-17T07:37:33.671Z,25.43
2022-08-17T07:38:35.516Z,25.45
2022-08-17T07:39:37.125Z,25.46
2022-08-17T07:41:02.147Z,25.47
2022-08-17T07:42:03.960Z,25.49
2022-08-17T07:43:08.595Z,25.51
2022-08-17T07:44:15.233Z,25.50
2022-08-17T07:45:35.229Z,25.49
2022-08-17T07:46:55.853Z,25.52
2022-08-17T07:48:16.237Z,25.53
2022-08-17T07:49:24.939Z,25.53
2022-08-17T07:50:27.126Z,25.52
2022-08-17T07:51:28.699Z,25.52
2022-08-17T07:52:50.573Z,25.50
2022-08-17T07:53:53.645Z,25.39
2022-08-17T07:54:55.135Z,25.47
2022-08-17T07:55:56.747Z,25.45
2022-08-17T07:57:10.496Z,25.45
2022-08-17T07:58:15.991Z,25.45
2022-08-17T07:59:24.748Z,25.46
2022-08-17T08:00:32.325Z,25.47
2022-08-17T08:01:41.767Z,25.48
2022-08-17T08:02:45.382Z,25.48
2022-08-17T08:03:49.366Z,25.48
2022-08-17T08:05:02.093Z,25.49
2022-08-17T08:06:04.039Z,25.51
2022-08-17T08:07:12.270Z,25.52
2022-08-17T08:08:33.520Z,25.53
2022-08-17T08:09:36.567Z,25.55
2022-08-17T08:10:45.369Z,25.57
2022-08-17T08:11:47.144Z,25.57
2022-08-17T08:12:48.707Z,25.59
2022-08-17T08:13:55.275Z,25.59
2022-08-17T08:14:58.160Z,25.61
2022-08-17T08:16:25.757Z,25.61
2022-08-17T08:17:30.603Z,25.62
2022-08-17T08:18:54.862Z,25.64
2022-08-17T08:19:58.196Z,25.64
2022-08-17T08:21:01.675Z,25.64
2022-08-17T08:22:10.317Z,25.66
2022-08-17T08:23:44.400Z,25.67
2022-08-17T08:24:45.930Z,25.67
2022-08-17T08:25:53.340Z,25.69
2022-08-17T08:27:08.123Z,25.68
2022-08-17T08:28:20.125Z,25.71
2022-08-17T08:29:32.038Z,25.71
2022-08-17T08:30:34.739Z,25.69
2022-08-17T08:31:45.284Z,25.69
2022-08-17T08:32:48.557Z,25.68
2022-08-17T08:33:57.249Z,25.67
2022-08-17T08:35:08.207Z,25.69
2022-08-17T08:36:09.725Z,25.71
2022-08-17T08:37:18.050Z,25.70
2022-08-17T08:38:25.462Z,25.70
2022-08-17T08:39:33.128Z,25.69
2022-08-17T08:40:38.344Z,25.68
2022-08-17T08:42:00.168Z,25.68
2022-08-17T08:43:07.910Z,25.64
2022-08-17T08:45:00.196Z,25.64
2022-08-17T08:45:57.784Z,25.62
2022-08-17T08:47:02.914Z,25.61
2022-08-17T08:48:22.939Z,25.61
2022-08-17T08:50:05.715Z,25.61
2022-08-17T08:51:07.499Z,25.60
2022-08-17T08:52:14.038Z,25.58
2022-08-17T08:53:27.808Z,25.58
2022-08-17T08:54:46.499Z,25.57
2022-08-17T08:55:47.957Z,25.57
2022-08-17T08:57:21.876Z,25.59
2022-08-17T08:58:42.330Z,25.61
2022-08-17T09:00:02.612Z,25.63
2022-08-17T09:01:08.746Z,25.65
2022-08-17T09:02:34.862Z,25.66
2022-08-17T09:03:52.436Z,25.69
2022-08-17T09:05:14.968Z,25.71
2022-08-17T09:06:37.804Z,25.74
2022-08-17T09:07:42.199Z,25.78
2022-08-17T09:08:43.680Z,25.78
2022-08-17T09:09:49.704Z,25.80
2022-08-17T09:11:00.386Z,25.83
2022-08-17T09:12:05.264Z,25.86
2022-08-17T09:13:15.797Z,25.89
2022-08-17T09:14:28.795Z,25.90
2022-08-17T09:15:33.484Z,25.92
2022-08-17T09:16:40.432Z,25.95
2022-08-17T09:17:47.834Z,25.97
2022-08-17T09:19:02.629Z,25.98
2022-08-17T09:20:27.670Z,25.99
2022-08-17T09:21:47.718Z,26.01
2022-08-17T09:22:50.603Z,26.04
2022-08-17T09:23:59.917Z,26.05
2022-08-17T09:25:10.493Z,26.06
2022-08-17T09:26:13.932Z,26.06
2022-08-17T09:27:16.671Z,26.06
2022-08-17T09:28:24.116Z,26.02
2022-08-17T09:29:26.393Z,26.01
2022-08-17T09:30:29.924Z,26.04
2022-08-17T09:31:35.496Z,26.05
2022-08-17T09:32:49.928Z,26.07
2022-08-17T09:33:51.651Z,26.08
2022-08-17T09:34:54.832Z,26.07
2022-08-17T09:36:01.259Z,26.07
2022-08-17T09:37:21.219Z,26.06
2022-08-17T09:38:34.482Z,26.08
2022-08-17T09:39:42.008Z,26.10
2022-08-17T09:40:46.599Z,26.11
2022-08-17T09:41:49.297Z,26.13
2022-08-17T09:43:01.402Z,26.18
2022-08-17T09:44:22.581Z,26.20
2022-08-17T09:45:25.076Z,26.24
2022-08-17T09:46:47.968Z,26.28
2022-08-17T09:47:52.705Z,26.31
2022-08-17T09:48:56.293Z,26.34
2022-08-17T09:50:00.360Z,26.36
2022-08-17T09:51:09.722Z,26.40
2022-08-17T09:52:17.881Z,26.43
2022-08-17T09:53:19.483Z,26.44
2022-08-17T09:54:42.024Z,26.46
2022-08-17T09:55:51.632Z,26.50
2022-08-17T09:57:28.463Z,26.52
2022-08-17T09:58:49.196Z,26.54
2022-08-17T09:59:50.672Z,26.57
2022-08-17T10:00:54.475Z,26.57
2022-08-17T10:01:59.361Z,26.60
2022-08-17T10:03:16.436Z,26.61
2022-08-17T10:04:20.345Z,26.62
2022-08-17T10:05:23.108Z,26.62
2022-08-17T10:06:34.100Z,26.65
2022-08-17T10:07:41.258Z,26.64
2022-08-17T10:08:42.812Z,26.67
2022-08-17T10:09:55.688Z,26.67
2022-08-17T10:10:58.969Z,26.68
2022-08-17T10:12:20.514Z,26.68
2022-08-17T10:13:28.097Z,26.64
2022-08-17T10:14:43.659Z,26.65
2022-08-17T10:15:48.915Z,26.67
2022-08-17T10:16:55.913Z,26.67
2022-08-17T10:18:01.228Z,26.69
2022-08-17T10:19:05.427Z,26.65
2022-08-17T10:20:10.740Z,26.65
2022-08-17T10:21:33.818Z,26.64
2022-08-17T10:22:56.996Z,26.66
2022-08-17T10:24:25.184Z,26.66
2022-08-17T10:26:00.289Z,26.66
2022-08-17T10:27:02.094Z,26.66
2022-08-17T10:28:07.427Z,26.65
2022-08-17T10:29:17.652Z,26.66
2022-08-17T10:30:20.272Z,26.65
2022-08-17T10:31:36.567Z,26.67
2022-08-17T10:32:39.730Z,26.67
2022-08-17T10:33:47.448Z,26.65
2022-08-17T10:34:49.263Z,26.63
2022-08-17T10:35:57.893Z,26.64
2022-08-17T10:37:08.451Z,26.64
2022-08-17T10:38:25.505Z,26.64
2022-08-17T10:39:30.536Z,26.60
2022-08-17T10:40:43.660Z,26.61
2022-08-17T10:41:46.780Z,26.63
2022-08-17T10:42:51.992Z,26.62
2022-08-17T10:44:36.966Z,26.63
2022-08-17T10:45:15.314Z,26.65
2022-08-17T10:46:30.308Z,26.63
2022-08-17T10:48:13.108Z,26.61
2022-08-17T10:49:22.524Z,26.61
2022-08-17T10:50:42.582Z,26.60
2022-08-17T10:51:54.462Z,26.62
2022-08-17T10:52:56.058Z,26.67
2022-08-17T10:53:57.753Z,26.71
2022-08-17T10:55:07.942Z,26.76
2022-08-17T10:56:12.316Z,26.78
2022-08-17T10:57:33.017Z,26.77
2022-08-17T10:58:38.244Z,26.82
2022-08-17T10:59:39.700Z,26.80
2022-08-17T11:00:41.275Z,26.85
2022-08-17T11:01:45.860Z,26.90
2022-08-17T11:02:54.227Z,26.94
2022-08-17T11:03:56.771Z,27.00
2022-08-17T11:05:01.401Z,27.04
2022-08-17T11:06:14.390Z,27.07
2022-08-17T11:07:15.896Z,27.13
2022-08-17T11:08:32.643Z,27.20
2022-08-17T11:09:53.067Z,27.24
2022-08-17T11:11:06.552Z,27.28
2022-08-17T11:12:08.574Z,27.30
2022-08-17T11:13:13.217Z,27.30
2022-08-17T11:14:33.170Z,27.36
2022-08-17T11:15:37.423Z,27.36
2022-08-17T11:16:52.110Z,27.34
2022-08-17T11:17:53.610Z,27.35
2022-08-17T11:18:58.132Z,27.37
2022-08-17T11:20:08.570Z,27.35
2022-08-17T11:21:16.170Z,27.37
2022-08-17T11:22:22.446Z,27.40
2022-08-17T11:23:26.611Z,27.43
2022-08-17T11:24:31.395Z,27.48
2022-08-17T11:25:53.157Z,27.49
2022-08-17T11:27:01.961Z,27.45
2022-08-17T11:28:25.622Z,27.48
2022-08-17T11:29:30.231Z,27.47
2022-08-17T11:30:48.448Z,27.42
2022-08-17T11:31:59.298Z,27.43
2022-08-17T11:33:02.987Z,27.48
2022-08-17T11:34:14.571Z,27.41
2022-08-17T11:35:19.057Z,27.40
2022-08-17T11:36:31.460Z,27.38
2022-08-17T11:37:36.400Z,27.44
2022-08-17T11:38:43.948Z,27.43
2022-08-17T11:40:07.190Z,27.39
2022-08-17T11:41:17.792Z,27.45
2022-08-17T11:42:42.264Z,27.51
2022-08-17T11:43:45.431Z,27.46
2022-08-17T11:44:51.387Z,27.43
2022-08-17T11:45:52.915Z,27.40
2022-08-17T11:47:19.278Z,27.44
2022-08-17T11:48:42.342Z,27.51
2022-08-17T11:50:05.447Z,27.56
2022-08-17T11:51:28.343Z,27.59
2022-08-17T11:52:35.807Z,27.60
2022-08-17T11:53:37.299Z,27.56
2022-08-17T11:54:48.087Z,27.60
2022-08-17T11:55:53.751Z,27.57
2022-08-17T11:56:55.242Z,27.60
2022-08-17T11:57:59.769Z,27.63
2022-08-17T11:59:01.435Z,27.64
2022-08-17T12:00:12.565Z,27.67
2022-08-17T12:01:22.907Z,27.63
2022-08-17T12:02:34.997Z,27.63
2022-08-17T12:03:42.378Z,27.68
2022-08-17T12:05:14.283Z,27.68
2022-08-17T12:06:24.987Z,27.68
2022-08-17T12:07:32.757Z,27.64
2022-08-17T12:08:34.284Z,27.58
2022-08-17T12:09:39.181Z,27.55
2022-08-17T12:10:48.882Z,27.61
2022-08-17T12:12:13.207Z,27.65
2022-08-17T12:13:15.863Z,27.58
2022-08-17T12:14:29.402Z,27.63
2022-08-17T12:15:45.048Z,27.68
2022-08-17T12:16:46.610Z,27.70
2022-08-17T12:17:52.848Z,27.72
2022-08-17T12:18:58.609Z,27.77
2022-08-17T12:20:19.900Z,27.81
2022-08-17T12:21:21.419Z,27.83
2022-08-17T12:22:32.945Z,27.80
2022-08-17T12:23:38.027Z,27.76
2022-08-17T12:24:45.372Z,27.75
2022-08-17T12:26:07.758Z,27.72
2022-08-17T12:27:09.552Z,27.74
2022-08-17T12:28:30.381Z,27.76
2022-08-17T12:29:38.427Z,27.85
2022-08-17T12:30:40.906Z,27.94
2022-08-17T12:31:44.248Z,28.01
2022-08-17T12:32:48.655Z,28.04
2022-08-17T12:33:51.758Z,28.04
2022-08-17T12:34:53.911Z,28.09
2022-08-17T12:35:59.304Z,28.13
2022-08-17T12:37:02.113Z,28.15
2022-08-17T12:38:04.473Z,28.14
2022-08-17T12:39:13.832Z,28.12
2022-08-17T12:40:23.216Z,28.12
2022-08-17T12:41:34.968Z,28.06
2022-08-17T12:42:37.698Z,28.05
2022-08-17T12:43:39.182Z,28.12
2022-08-17T12:44:50.278Z,28.12
2022-08-17T12:45:57.225Z,28.09
2022-08-17T12:47:01.860Z,28.10
2022-08-17T12:48:07.850Z,28.12
2022-08-17T12:49:16.751Z,28.13
2022-08-17T12:50:28.285Z,28.13
2022-08-17T12:51:31.751Z,28.15
2022-08-17T12:52:33.378Z,28.19
2022-08-17T12:53:37.870Z,28.20
2022-08-17T12:54:42.474Z,28.26
2022-08-17T12:55:44.341Z,28.27
2022-08-17T12:56:46.101Z,28.30
2022-08-17T12:57:55.828Z,28.32
2022-08-17T12:58:57.757Z,28.29
2022-08-17T13:00:00.830Z,28.31
2022-08-17T13:01:04.265Z,28.36
2022-08-17T13:02:05.848Z,28.40
2022-08-17T13:03:09.539Z,28.38
2022-08-17T13:04:14.248Z,28.38
2022-08-17T13:05:19.117Z,28.41
2022-08-17T13:06:33.772Z,28.44
2022-08-17T13:07:36.805Z,28.50
2022-08-17T13:08:43.128Z,28.55
2022-08-17T13:09:49.877Z,28.60
2022-08-17T13:11:10.479Z,28.69
2022-08-17T13:12:12.224Z,28.73
2022-08-17T13:13:17.997Z,28.79
2022-08-17T13:14:20.316Z,28.82
2022-08-17T13:15:31.438Z,28.87
2022-08-17T13:16:33.623Z,28.90
2022-08-17T13:17:35.599Z,28.94
2022-08-17T13:18:39.866Z,28.97
2022-08-17T13:19:48.247Z,28.99
2022-08-17T13:20:55.573Z,29.02
2022-08-17T13:21:57.754Z,29.04
2022-08-17T13:22:59.836Z,29.07
2022-08-17T13:24:10.260Z,29.13
2022-08-17T13:25:15.957Z,29.17
2022-08-17T13:26:17.426Z,29.24
2022-08-17T13:27:19.839Z,29.33
2022-08-17T13:28:30.602Z,29.36
2022-08-17T13:29:51.482Z,29.39
2022-08-17T13:31:13.632Z,29.44
2022-08-17T13:32:16.616Z,29.53
2022-08-17T13:33:26.076Z,29.57
2022-08-17T13:34:56.163Z,29.65
2022-08-17T13:36:08.019Z,29.65
2022-08-17T13:37:17.423Z,29.57
2022-08-17T13:38:43.876Z,29.57
2022-08-17T13:39:45.554Z,29.61
2022-08-17T13:40:50.006Z,29.62
2022-08-17T13:41:52.927Z,29.61
2022-08-17T13:42:55.453Z,29.55
2022-08-17T13:43:56.946Z,29.58
2022-08-17T13:44:58.660Z,29.58
2022-08-17T13:46:07.055Z,29.62
2022-08-17T13:47:16.146Z,29.62
2022-08-17T13:48:28.426Z,29.58
2022-08-17T13:49:41.920Z,29.59
2022-08-17T13:50:56.894Z,29.66
2022-08-17T13:51:58.447Z,29.68
2022-08-17T13:53:00.252Z,29.67
2022-08-17T13:54:02.747Z,29.69
2022-08-17T13:55:07.521Z,29.68
2022-08-17T13:56:36.993Z,29.73
2022-08-17T13:57:34.729Z,29.79
2022-08-17T13:58:37.256Z,29.83
2022-08-17T13:59:53.026Z,29.86
2022-08-17T14:00:57.181Z,29.90
2022-08-17T14:01:59.457Z,29.88
2022-08-17T14:03:02.107Z,29.91
2022-08-17T14:04:04.978Z,29.92
2022-08-17T14:05:06.834Z,29.96
2022-08-17T14:06:08.374Z,29.96
2022-08-17T14:07:11.490Z,29.97
2022-08-17T14:08:13.469Z,30.01
2022-08-17T14:09:15.307Z,30.03
2022-08-17T14:10:17.411Z,30.09
2022-08-17T14:11:18.949Z,30.12
2022-08-17T14:12:22.308Z,30.12
2022-08-17T14:13:23.848Z,30.14
2022-08-17T14:14:25.416Z,30.14
2022-08-17T14:15:54.615Z,30.13
2022-08-17T14:16:48.864Z,30.10
2022-08-17T14:17:50.928Z,30.11
2022-08-17T14:18:57.110Z,30.10
2022-08-17T14:19:58.988Z,30.11
2022-08-17T14:21:00.459Z,30.05
2022-08-17T14:22:01.960Z,30.05
2022-08-17T14:23:03.494Z,30.11
2022-08-17T14:24:05.237Z,30.12
2022-08-17T14:25:10.302Z,30.12